Time,TemperatureF,DewpointF,PressureIn,WindDirection,WindDirectionDegrees,WindSpeedMPH,WindSpeedGustMPH,Humidity,HourlyPrecipIn,Conditions,Clouds,dailyrainin,SoftwareType,DateUTC
2013-02-16 00:03:00,48.0,41.2,30.30,NNE,32,0.0,0.0,77,0.00,,,0.00,VWS V13.01,2013-02-16 08:03:00,
2013-02-16 00:08:00,48.0,41.2,30.30,NNE,32,0.0,0.0,77,0.00,,,0.00,VWS V13.01,2013-02-16 08:08:00,
2013-02-16 00:13:00,48.0,41.2,30.30,NNE,32,0.0,0.0,77,0.00,,,0.00,VWS V13.01,2013-02-16 08:13:00,
2013-02-16 00:18:00,48.0,41.5,30.30,NNE,32,0.0,0.0,78,0.00,,,0.00,VWS V13.01,2013-02-16 08:18:00,
2013-02-16 00:23:00,48.0,41.5,30.30,NNE,31,0.0,0.0,78,0.00,,,0.00,VWS V13.01,2013-02-16 08:23:00,
2013-02-16 00:28:00,48.0,41.5,30.30,NNE,32,0.0,0.0,78,0.00,,,0.00,VWS V13.01,2013-02-16 08:28:00,
2013-02-16 00:33:00,48.0,41.5,30.30,NNE,31,0.0,0.0,78,0.00,,,0.00,VWS V13.01,2013-02-16 08:33:00,
2013-02-16 00:38:00,48.0,41.5,30.30,NNE,31,0.0,0.0,78,0.00,,,0.00,VWS V13.01,2013-02-16 08:38:00,
2013-02-16 00:43:00,48.0,41.8,30.30,NNE,32,0.0,0.0,79,0.00,,,0.00,VWS V13.01,2013-02-16 08:43:00,
2013-02-16 00:48:00,48.2,41.7,30.30,NNE,31,0.0,0.0,78,0.00,,,0.00,VWS V13.01,2013-02-16 08:48:00,
2013-02-16 00:53:00,48.2,42.0,30.30,NNE,31,0.0,0.0,79,0.00,,,0.00,VWS V13.01,2013-02-16 08:53:00,
2013-02-16 00:58:00,48.2,42.0,30.30,NNE,32,2.7,2.7,79,0.00,,,0.00,VWS V13.01,2013-02-16 08:58:00,
2013-02-16 01:03:00,48.2,42.0,30.30,NNE,31,0.0,0.0,79,0.00,,,0.00,VWS V13.01,2013-02-16 09:03:00,
2013-02-16 01:08:00,48.2,42.0,30.30,NNE,31,3.1,3.6,79,0.00,,,0.00,VWS V13.01,2013-02-16 09:08:00,
2013-02-16 01:13:00,48.2,42.0,30.30,NNE,29,0.0,0.0,79,0.00,,,0.00,VWS V13.01,2013-02-16 09:13:00,
2013-02-16 01:18:00,48.2,42.0,30.30,NNE,29,0.0,0.0,79,0.00,,,0.00,VWS V13.01,2013-02-16 09:18:00,
2013-02-16 01:23:00,48.2,42.0,30.30,NW,309,3.1,6.3,79,0.00,,,0.00,VWS V13.01,2013-02-16 09:23:00,
2013-02-16 01:28:00,48.0,41.8,30.30,West,278,2.7,4.9,79,0.00,,,0.00,VWS V13.01,2013-02-16 09:28:00,
2013-02-16 01:33:00,48.0,41.8,30.30,West,278,3.1,3.1,79,0.00,,,0.00,VWS V13.01,2013-02-16 09:33:00,
2013-02-16 01:38:00,48.0,41.8,30.30,NW,320,0.0,3.1,79,0.00,,,0.00,VWS V13.01,2013-02-16 09:38:00,
2013-02-16 01:43:00,48.0,41.5,30.30,NW,307,2.7,3.6,78,0.00,,,0.00,VWS V13.01,2013-02-16 09:43:00,
2013-02-16 01:48:00,48.0,41.5,30.30,WNW,303,0.0,3.6,78,0.00,,,0.00,VWS V13.01,2013-02-16 09:48:00,
2013-02-16 01:53:00,48.0,41.2,30.30,WNW,303,0.0,2.7,77,0.00,,,0.00,VWS V13.01,2013-02-16 09:53:00,
2013-02-16 01:58:00,48.2,41.0,30.30,WNW,303,2.7,2.7,76,0.00,,,0.00,VWS V13.01,2013-02-16 09:58:00,
2013-02-16 02:03:00,48.0,40.8,30.30,NW,306,0.0,2.7,76,0.00,,,0.00,VWS V13.01,2013-02-16 10:03:00,
2013-02-16 02:08:00,47.8,40.7,30.30,NW,304,2.2,5.8,76,0.00,,,0.00,VWS V13.01,2013-02-16 10:08:00,
2013-02-16 02:13:00,48.0,40.1,30.30,WNW,289,2.7,3.6,74,0.00,,,0.00,VWS V13.01,2013-02-16 10:13:00,
2013-02-16 02:18:00,48.0,40.1,30.30,WNW,289,2.2,2.2,74,0.00,,,0.00,VWS V13.01,2013-02-16 10:18:00,
2013-02-16 02:23:00,47.8,39.6,30.30,WNW,289,0.0,0.0,73,0.00,,,0.00,VWS V13.01,2013-02-16 10:23:00,
2013-02-16 02:28:00,48.0,39.8,30.30,WNW,289,0.0,0.0,73,0.00,,,0.00,VWS V13.01,2013-02-16 10:28:00,
2013-02-16 02:33:00,48.0,39.8,30.30,WNW,289,0.0,2.7,73,0.00,,,0.00,VWS V13.01,2013-02-16 10:33:00,
2013-02-16 02:38:00,47.8,39.3,30.30,WNW,296,0.0,2.7,72,0.00,,,0.00,VWS V13.01,2013-02-16 10:38:00,
2013-02-16 02:43:00,47.8,39.3,30.30,WNW,296,0.0,0.0,72,0.00,,,0.00,VWS V13.01,2013-02-16 10:43:00,
2013-02-16 02:48:00,47.8,39.3,30.30,WNW,296,0.0,0.0,72,0.00,,,0.00,VWS V13.01,2013-02-16 10:48:00,
2013-02-16 02:53:00,47.8,39.3,30.30,WNW,296,0.0,0.0,72,0.00,,,0.00,VWS V13.01,2013-02-16 10:53:00,
2013-02-16 02:58:00,47.8,38.9,30.30,WNW,297,4.0,4.0,71,0.00,,,0.00,VWS V13.01,2013-02-16 10:58:00,
2013-02-16 03:03:00,47.7,38.0,30.30,WNW,298,6.3,6.3,69,0.00,,,0.00,VWS V13.01,2013-02-16 11:03:00,
2013-02-16 03:08:00,47.7,37.6,30.30,WNW,297,0.0,0.0,68,0.00,,,0.00,VWS V13.01,2013-02-16 11:08:00,
2013-02-16 03:13:00,47.7,38.0,30.30,WNW,297,0.0,0.0,69,0.00,,,0.00,VWS V13.01,2013-02-16 11:13:00,
2013-02-16 03:18:00,47.7,37.6,30.30,WNW,297,0.0,0.0,68,0.00,,,0.00,VWS V13.01,2013-02-16 11:18:00,
2013-02-16 03:23:00,47.7,37.6,30.30,WNW,300,0.0,3.6,68,0.00,,,0.00,VWS V13.01,2013-02-16 11:23:00,
2013-02-16 03:28:00,47.7,37.6,30.30,WNW,300,2.2,3.1,68,0.00,,,0.00,VWS V13.01,2013-02-16 11:28:00,
2013-02-16 03:33:00,47.7,37.6,30.30,WNW,300,3.1,3.6,68,0.00,,,0.00,VWS V13.01,2013-02-16 11:33:00,
2013-02-16 03:38:00,47.7,37.3,30.30,WNW,301,2.7,2.7,67,0.00,,,0.00,VWS V13.01,2013-02-16 11:38:00,
2013-02-16 03:42:00,47.5,37.1,30.30,North,1,0.0,4.9,67,0.00,,,0.00,VWS V13.01,2013-02-16 11:42:00,
2013-02-16 03:47:00,47.5,36.3,30.30,NW,306,3.6,4.9,65,0.00,,,0.00,VWS V13.01,2013-02-16 11:47:00,
2013-02-16 03:52:00,47.5,36.3,30.30,WNW,297,0.0,2.2,65,0.00,,,0.00,VWS V13.01,2013-02-16 11:52:00,
2013-02-16 03:57:00,47.3,35.8,30.30,WNW,295,0.0,3.1,64,0.00,,,0.00,VWS V13.01,2013-02-16 11:57:00,
2013-02-16 04:02:00,47.5,35.9,30.30,WNW,286,3.6,3.6,64,0.00,,,0.00,VWS V13.01,2013-02-16 12:02:00,
2013-02-16 04:07:00,47.3,35.8,30.30,WNW,286,0.0,0.0,64,0.00,,,0.00,VWS V13.01,2013-02-16 12:07:00,
2013-02-16 04:12:00,47.3,35.8,30.30,WNW,286,2.7,3.1,64,0.00,,,0.00,VWS V13.01,2013-02-16 12:12:00,
2013-02-16 04:17:00,47.3,35.8,30.30,WNW,286,0.0,0.0,64,0.00,,,0.00,VWS V13.01,2013-02-16 12:17:00,
2013-02-16 04:22:00,47.3,35.8,30.30,NW,313,4.0,5.4,64,0.00,,,0.00,VWS V13.01,2013-02-16 12:22:00,
2013-02-16 04:27:00,47.3,35.8,30.30,WNW,296,2.2,2.7,64,0.00,,,0.00,VWS V13.01,2013-02-16 12:27:00,
2013-02-16 04:32:00,47.3,36.2,30.30,WNW,296,2.7,4.0,65,0.00,,,0.00,VWS V13.01,2013-02-16 12:32:00,
2013-02-16 04:37:00,47.3,35.8,30.30,NW,321,2.7,2.7,64,0.00,,,0.00,VWS V13.01,2013-02-16 12:37:00,
2013-02-16 04:42:00,47.1,36.0,30.30,North,1,4.0,4.9,65,0.00,,,0.00,VWS V13.01,2013-02-16 12:42:00,
2013-02-16 04:47:00,47.1,36.0,30.30,North,353,3.1,4.9,65,0.00,,,0.00,VWS V13.01,2013-02-16 12:47:00,
2013-02-16 04:52:00,47.1,36.4,30.30,WNW,303,4.9,4.9,66,0.00,,,0.00,VWS V13.01,2013-02-16 12:52:00,
2013-02-16 04:57:00,47.1,36.4,30.30,WNW,303,2.7,3.1,66,0.00,,,0.00,VWS V13.01,2013-02-16 12:57:00,
2013-02-16 05:02:00,46.9,36.6,30.30,WNW,303,2.7,3.1,67,0.00,,,0.00,VWS V13.01,2013-02-16 13:02:00,
2013-02-16 05:07:00,46.9,36.6,30.30,WNW,303,2.7,3.6,67,0.00,,,0.00,VWS V13.01,2013-02-16 13:07:00,
2013-02-16 05:12:00,46.9,36.6,30.30,NW,304,4.9,4.9,67,0.00,,,0.00,VWS V13.01,2013-02-16 13:12:00,
2013-02-16 05:17:00,46.8,36.8,30.30,NW,319,2.7,3.6,68,0.00,,,0.00,VWS V13.01,2013-02-16 13:17:00,
2013-02-16 05:22:00,46.8,36.8,30.30,NNW,335,5.8,5.8,68,0.00,,,0.00,VWS V13.01,2013-02-16 13:22:00,
2013-02-16 05:27:00,46.6,37.3,30.30,North,0,3.6,4.0,70,0.00,,,0.00,VWS V13.01,2013-02-16 13:27:00,
2013-02-16 05:32:00,46.6,37.3,30.30,NNW,338,4.9,4.9,70,0.00,,,0.00,VWS V13.01,2013-02-16 13:32:00,
2013-02-16 05:37:00,46.6,37.7,30.30,NNW,346,2.7,3.1,71,0.00,,,0.00,VWS V13.01,2013-02-16 13:37:00,
2013-02-16 05:42:00,46.6,38.0,30.30,North,350,5.8,5.8,72,0.00,,,0.00,VWS V13.01,2013-02-16 13:42:00,
2013-02-16 05:47:00,46.4,37.9,30.30,North,357,0.0,5.4,72,0.00,,,0.00,VWS V13.01,2013-02-16 13:47:00,
2013-02-16 05:52:00,46.4,38.2,30.30,NW,308,2.7,3.6,73,0.00,,,0.00,VWS V13.01,2013-02-16 13:52:00,
2013-02-16 05:57:00,46.4,38.2,30.30,NW,326,3.1,3.1,73,0.00,,,0.00,VWS V13.01,2013-02-16 13:57:00,
2013-02-16 06:02:00,46.4,38.6,30.30,NNW,327,4.0,4.0,74,0.00,,,0.00,VWS V13.01,2013-02-16 14:02:00,
2013-02-16 06:07:00,46.4,38.6,30.30,NW,309,3.6,3.6,74,0.00,,,0.00,VWS V13.01,2013-02-16 14:07:00,
2013-02-16 06:12:00,46.4,38.6,30.30,NW,309,3.1,3.1,74,0.00,,,0.00,VWS V13.01,2013-02-16 14:12:00,
2013-02-16 06:17:00,46.4,38.6,30.30,NW,308,4.0,4.0,74,0.00,,,0.00,VWS V13.01,2013-02-16 14:17:00,
2013-02-16 06:22:00,46.4,38.6,30.30,NW,308,0.0,0.0,74,0.00,,,0.00,VWS V13.01,2013-02-16 14:22:00,
2013-02-16 06:27:00,46.2,38.8,30.30,NW,309,0.0,0.0,75,0.00,,,0.00,VWS V13.01,2013-02-16 14:27:00,
2013-02-16 06:32:00,46.2,38.8,30.30,NW,309,0.0,0.0,75,0.00,,,0.00,VWS V13.01,2013-02-16 14:32:00,
2013-02-16 06:37:00,46.2,38.8,30.30,NW,309,0.0,0.0,75,0.00,,,0.00,VWS V13.01,2013-02-16 14:37:00,
2013-02-16 06:42:00,46.2,38.8,30.30,NW,309,0.0,0.0,75,0.00,,,0.00,VWS V13.01,2013-02-16 14:42:00,
2013-02-16 06:47:00,46.2,38.8,30.30,NW,309,0.0,0.0,75,0.00,,,0.00,VWS V13.01,2013-02-16 14:47:00,
2013-02-16 06:52:00,46.2,38.8,30.30,NW,309,0.0,0.0,75,0.00,,,0.00,VWS V13.01,2013-02-16 14:52:00,
2013-02-16 06:57:00,46.2,38.8,30.30,NW,309,0.0,0.0,75,0.00,,,0.00,VWS V13.01,2013-02-16 14:57:00,
2013-02-16 07:02:00,46.2,38.8,30.30,NW,309,0.0,0.0,75,0.00,,,0.00,VWS V13.01,2013-02-16 15:02:00,
2013-02-16 07:07:00,46.4,38.9,30.30,NW,309,0.0,0.0,75,0.00,,,0.00,VWS V13.01,2013-02-16 15:07:00,
2013-02-16 07:12:00,46.4,38.9,30.30,NW,309,0.0,0.0,75,0.00,,,0.00,VWS V13.01,2013-02-16 15:12:00,
2013-02-16 07:17:00,46.6,39.4,30.30,NNW,339,4.9,4.9,76,0.00,,,0.00,VWS V13.01,2013-02-16 15:17:00,
2013-02-16 07:22:00,46.4,39.6,30.30,North,9,4.0,4.0,77,0.00,,,0.00,VWS V13.01,2013-02-16 15:22:00,
2013-02-16 07:27:00,46.4,40.2,30.30,NNE,26,2.7,2.7,79,0.00,,,0.00,VWS V13.01,2013-02-16 15:27:00,
2013-02-16 07:32:00,46.4,40.2,30.30,NNE,26,3.1,4.0,79,0.00,,,0.00,VWS V13.01,2013-02-16 15:32:00,
2013-02-16 07:37:00,46.4,40.6,30.30,NNE,26,0.0,0.0,80,0.00,,,0.00,VWS V13.01,2013-02-16 15:37:00,
2013-02-16 07:42:00,46.4,40.6,30.30,NNE,26,0.0,0.0,80,0.00,,,0.00,VWS V13.01,2013-02-16 15:42:00,
2013-02-16 07:47:00,46.6,41.1,30.30,NNE,26,2.7,3.1,81,0.00,,,0.00,VWS V13.01,2013-02-16 15:47:00,
2013-02-16 07:52:00,46.6,41.1,30.33,NNE,26,0.0,0.0,81,0.00,,,0.00,VWS V13.01,2013-02-16 15:52:00,
2013-02-16 07:57:00,46.6,41.1,30.33,NNE,26,0.0,0.0,81,0.00,,,0.00,VWS V13.01,2013-02-16 15:57:00,
2013-02-16 08:02:00,46.8,41.2,30.33,NNE,26,0.0,0.0,81,0.00,,,0.00,VWS V13.01,2013-02-16 16:02:00,
2013-02-16 08:07:00,46.8,41.2,30.33,NNE,26,0.0,0.0,81,0.00,,,0.00,VWS V13.01,2013-02-16 16:07:00,
2013-02-16 08:12:00,46.8,41.2,30.33,NNE,23,2.2,3.6,81,0.00,,,0.00,VWS V13.01,2013-02-16 16:12:00,
2013-02-16 08:17:00,46.9,41.4,30.33,NNE,19,4.0,4.0,81,0.00,,,0.00,VWS V13.01,2013-02-16 16:17:00,
2013-02-16 08:22:00,46.9,41.4,30.33,NNE,19,0.0,0.0,81,0.00,,,0.00,VWS V13.01,2013-02-16 16:22:00,
2013-02-16 08:27:00,47.1,41.9,30.33,NNE,23,2.2,2.2,82,0.00,,,0.00,VWS V13.01,2013-02-16 16:27:00,
2013-02-16 08:32:00,47.3,42.1,30.33,North,9,0.0,0.0,82,0.00,,,0.00,VWS V13.01,2013-02-16 16:32:00,
2013-02-16 08:37:00,47.3,41.8,30.33,NNW,331,4.9,4.9,81,0.00,,,0.00,VWS V13.01,2013-02-16 16:37:00,
2013-02-16 08:42:00,47.5,42.0,30.33,NE,37,3.1,5.4,81,0.00,,,0.00,VWS V13.01,2013-02-16 16:42:00,
2013-02-16 08:47:00,47.5,41.6,30.33,North,357,2.2,2.2,80,0.00,,,0.00,VWS V13.01,2013-02-16 16:47:00,
2013-02-16 08:52:00,47.7,41.5,30.33,NNE,18,3.1,3.6,79,0.00,,,0.00,VWS V13.01,2013-02-16 16:52:00,
2013-02-16 08:57:00,47.7,41.2,30.33,NW,304,4.9,6.3,78,0.00,,,0.00,VWS V13.01,2013-02-16 16:57:00,
2013-02-16 09:02:00,47.7,40.5,30.33,North,353,5.4,8.1,76,0.00,,,0.00,VWS V13.01,2013-02-16 17:02:00,
2013-02-16 09:07:00,47.8,40.7,30.33,North,357,2.7,3.1,76,0.00,,,0.00,VWS V13.01,2013-02-16 17:07:00,
2013-02-16 09:12:00,48.0,40.8,30.33,NNW,346,3.1,3.1,76,0.00,,,0.00,VWS V13.01,2013-02-16 17:12:00,
2013-02-16 09:17:00,48.0,40.5,30.33,North,7,2.7,3.6,75,0.00,,,0.00,VWS V13.01,2013-02-16 17:17:00,
2013-02-16 09:22:00,48.0,40.1,30.33,North,8,2.7,3.1,74,0.00,,,0.00,VWS V13.01,2013-02-16 17:22:00,
2013-02-16 09:27:00,48.0,38.7,30.33,NNE,15,4.0,4.0,70,0.00,,,0.00,VWS V13.01,2013-02-16 17:27:00,
2013-02-16 09:32:00,48.4,38.7,30.33,North,2,4.0,5.8,69,0.00,,,0.00,VWS V13.01,2013-02-16 17:32:00,
2013-02-16 09:37:00,48.4,37.6,30.36,North,1,2.7,3.6,66,0.00,,,0.00,VWS V13.01,2013-02-16 17:37:00,
2013-02-16 09:42:00,48.7,36.3,30.36,NNE,27,5.4,5.4,62,0.00,,,0.00,VWS V13.01,2013-02-16 17:42:00,
2013-02-16 09:47:00,48.7,33.8,30.36,NNW,329,5.4,5.4,56,0.00,,,0.00,VWS V13.01,2013-02-16 17:47:00,
2013-02-16 09:52:00,48.7,32.4,30.36,NNE,28,4.0,4.0,53,0.00,,,0.00,VWS V13.01,2013-02-16 17:52:00,
2013-02-16 09:57:00,48.4,31.1,30.36,North,8,4.9,4.9,51,0.00,,,0.00,VWS V13.01,2013-02-16 17:57:00,
2013-02-16 10:02:00,48.0,30.8,30.36,North,11,10.5,10.5,51,0.00,,,0.00,VWS V13.01,2013-02-16 18:02:00,
2013-02-16 10:07:00,47.8,31.5,30.36,NNE,28,5.4,5.4,53,0.00,,,0.00,VWS V13.01,2013-02-16 18:07:00,
2013-02-16 10:12:00,47.7,32.3,30.36,NW,325,4.0,4.0,55,0.00,,,0.00,VWS V13.01,2013-02-16 18:12:00,
2013-02-16 10:17:00,48.0,33.1,30.36,NNE,16,4.9,5.4,56,0.00,,,0.00,VWS V13.01,2013-02-16 18:17:00,
2013-02-16 10:22:00,48.2,33.3,30.36,NNE,16,0.0,2.7,56,0.00,,,0.00,VWS V13.01,2013-02-16 18:22:00,
2013-02-16 10:27:00,48.7,33.8,30.36,NNE,17,0.0,2.2,56,0.00,,,0.00,VWS V13.01,2013-02-16 18:27:00,
2013-02-16 10:32:00,49.3,34.3,30.36,NE,36,0.0,0.0,56,0.00,,,0.00,VWS V13.01,2013-02-16 18:32:00,
2013-02-16 10:37:00,49.6,33.7,30.33,North,4,4.0,4.0,54,0.00,,,0.00,VWS V13.01,2013-02-16 18:37:00,
2013-02-16 10:42:00,49.8,32.9,30.33,ENE,59,2.7,4.0,52,0.00,,,0.00,VWS V13.01,2013-02-16 18:42:00,
2013-02-16 10:47:00,49.8,31.4,30.33,North,6,2.2,2.2,49,0.00,,,0.00,VWS V13.01,2013-02-16 18:47:00,
2013-02-16 10:52:00,50.0,30.6,30.33,NE,50,4.0,4.0,47,0.00,,,0.00,VWS V13.01,2013-02-16 18:52:00,
2013-02-16 10:57:00,50.5,30.5,30.33,NE,50,4.0,4.9,46,0.00,,,0.00,VWS V13.01,2013-02-16 18:57:00,
2013-02-16 11:02:00,50.9,29.2,30.33,NE,38,2.7,2.7,43,0.00,,,0.00,VWS V13.01,2013-02-16 19:02:00,
2013-02-16 11:07:00,51.3,27.8,30.33,NNE,13,4.9,4.9,40,0.00,,,0.00,VWS V13.01,2013-02-16 19:07:00,
2013-02-16 11:12:00,51.6,27.5,30.33,NW,318,5.8,5.8,39,0.00,,,0.00,VWS V13.01,2013-02-16 19:12:00,
2013-02-16 11:17:00,51.8,27.0,30.33,NW,311,3.6,4.9,38,0.00,,,0.00,VWS V13.01,2013-02-16 19:17:00,
2013-02-16 11:22:00,51.3,26.5,30.33,North,1,5.8,6.3,38,0.00,,,0.00,VWS V13.01,2013-02-16 19:22:00,
2013-02-16 11:27:00,51.1,26.4,30.33,North,357,4.9,4.9,38,0.00,,,0.00,VWS V13.01,2013-02-16 19:27:00,
2013-02-16 11:32:00,51.1,26.4,30.33,North,353,5.8,5.8,38,0.00,,,0.00,VWS V13.01,2013-02-16 19:32:00,
2013-02-16 11:37:00,50.9,26.2,30.36,WNW,295,3.6,4.0,38,0.00,,,0.00,VWS V13.01,2013-02-16 19:37:00,
2013-02-16 11:42:00,51.1,26.4,30.36,WNW,303,3.6,5.4,38,0.00,,,0.00,VWS V13.01,2013-02-16 19:42:00,
2013-02-16 11:47:00,51.6,27.5,30.36,NNW,329,4.0,4.0,39,0.00,,,0.00,VWS V13.01,2013-02-16 19:47:00,
2013-02-16 11:52:00,51.8,27.0,30.36,NNW,343,3.6,3.6,38,0.00,,,0.00,VWS V13.01,2013-02-16 19:52:00,
2013-02-16 11:57:00,52.0,27.2,30.36,North,357,6.3,6.3,38,0.00,,,0.00,VWS V13.01,2013-02-16 19:57:00,
2013-02-16 12:02:00,52.0,27.2,30.36,NW,306,6.3,6.3,38,0.00,,,0.00,VWS V13.01,2013-02-16 20:02:00,
2013-02-16 12:07:00,52.2,27.3,30.36,NNE,16,3.6,4.0,38,0.00,,,0.00,VWS V13.01,2013-02-16 20:07:00,
2013-02-16 12:12:00,52.3,27.5,30.36,NNW,344,5.4,5.4,38,0.00,,,0.00,VWS V13.01,2013-02-16 20:12:00,
2013-02-16 12:17:00,52.2,27.3,30.36,NNW,330,5.4,6.3,38,0.00,,,0.00,VWS V13.01,2013-02-16 20:17:00,
2013-02-16 12:22:00,52.3,27.5,30.36,North,1,6.3,6.3,38,0.00,,,0.00,VWS V13.01,2013-02-16 20:22:00,
2013-02-16 12:27:00,52.3,27.5,30.36,North,349,5.8,7.6,38,0.00,,,0.00,VWS V13.01,2013-02-16 20:27:00,
2013-02-16 12:32:00,52.0,27.2,30.36,North,1,5.8,6.3,38,0.00,,,0.00,VWS V13.01,2013-02-16 20:32:00,
2013-02-16 12:37:00,51.8,27.0,30.33,NNE,31,5.4,5.4,38,0.00,,,0.00,VWS V13.01,2013-02-16 20:37:00,
2013-02-16 12:42:00,52.2,27.3,30.33,NW,315,7.6,7.6,38,0.00,,,0.00,VWS V13.01,2013-02-16 20:42:00,
2013-02-16 12:47:00,52.9,28.0,30.33,NW,321,8.3,8.3,38,0.00,,,0.00,VWS V13.01,2013-02-16 20:47:00,
2013-02-16 12:52:00,52.9,28.0,30.33,North,3,4.0,6.7,38,0.00,,,0.00,VWS V13.01,2013-02-16 20:52:00,
2013-02-16 12:57:00,52.9,28.0,30.33,NNW,345,5.8,8.7,38,0.00,,,0.00,VWS V13.01,2013-02-16 20:57:00,
2013-02-16 13:02:00,53.1,28.1,30.33,North,4,6.3,8.1,38,0.00,,,0.00,VWS V13.01,2013-02-16 21:02:00,
2013-02-16 13:07:00,52.9,27.3,30.33,NNE,19,8.1,8.1,37,0.00,,,0.00,VWS V13.01,2013-02-16 21:07:00,
2013-02-16 13:12:00,53.1,28.1,30.33,NNW,332,6.3,8.3,38,0.00,,,0.00,VWS V13.01,2013-02-16 21:12:00,
2013-02-16 13:17:00,52.7,27.8,30.33,NNE,16,8.1,8.3,38,0.00,,,0.00,VWS V13.01,2013-02-16 21:17:00,
2013-02-16 13:22:00,52.5,27.7,30.33,NNW,338,6.3,8.3,38,0.00,,,0.00,VWS V13.01,2013-02-16 21:22:00,
2013-02-16 13:27:00,52.2,27.3,30.33,NNW,345,10.5,10.5,38,0.00,,,0.00,VWS V13.01,2013-02-16 21:27:00,
2013-02-16 13:32:00,52.0,27.8,30.33,WNW,292,5.8,6.3,39,0.00,,,0.00,VWS V13.01,2013-02-16 21:32:00,
2013-02-16 13:37:00,52.0,27.8,30.33,North,357,8.3,8.3,39,0.00,,,0.00,VWS V13.01,2013-02-16 21:37:00,
2013-02-16 13:42:00,52.0,27.8,30.33,NW,314,6.3,6.3,39,0.00,,,0.00,VWS V13.01,2013-02-16 21:42:00,
2013-02-16 13:47:00,51.8,27.6,30.33,NW,320,5.4,8.3,39,0.00,,,0.00,VWS V13.01,2013-02-16 21:47:00,
2013-02-16 13:52:00,52.3,28.1,30.33,NNW,337,5.8,8.3,39,0.00,,,0.00,VWS V13.01,2013-02-16 21:52:00,
2013-02-16 13:57:00,52.9,28.6,30.33,NNW,332,5.4,5.4,39,0.00,,,0.00,VWS V13.01,2013-02-16 21:57:00,
2013-02-16 14:02:00,53.8,28.1,30.33,North,1,5.4,8.3,37,0.00,,,0.00,VWS V13.01,2013-02-16 22:02:00,
2013-02-16 14:07:00,53.8,28.1,30.33,North,349,8.7,8.7,37,0.00,,,0.00,VWS V13.01,2013-02-16 22:07:00,
2013-02-16 14:12:00,53.6,28.0,30.33,North,1,5.4,5.4,37,0.00,,,0.00,VWS V13.01,2013-02-16 22:12:00,
2013-02-16 14:17:00,53.2,28.3,30.33,NE,41,5.4,8.7,38,0.00,,,0.00,VWS V13.01,2013-02-16 22:17:00,
2013-02-16 14:22:00,53.8,28.1,30.33,NNW,337,8.3,8.3,37,0.00,,,0.00,VWS V13.01,2013-02-16 22:22:00,
2013-02-16 14:27:00,54.0,28.3,30.33,NE,40,8.3,8.3,37,0.00,,,0.00,VWS V13.01,2013-02-16 22:27:00,
2013-02-16 14:32:00,53.2,27.7,30.33,North,3,6.3,6.3,37,0.00,,,0.00,VWS V13.01,2013-02-16 22:32:00,
2013-02-16 14:37:00,52.7,27.8,30.33,North,4,5.8,8.7,38,0.00,,,0.00,VWS V13.01,2013-02-16 22:37:00,
2013-02-16 14:42:00,53.4,28.5,30.33,NNE,16,4.0,4.0,38,0.00,,,0.00,VWS V13.01,2013-02-16 22:42:00,
2013-02-16 14:47:00,53.6,28.0,30.33,NNW,342,4.9,4.9,37,0.00,,,0.00,VWS V13.01,2013-02-16 22:47:00,
2013-02-16 14:52:00,53.2,27.7,30.33,NE,41,3.6,10.5,37,0.00,,,0.00,VWS V13.01,2013-02-16 22:52:00,
2013-02-16 14:57:00,53.2,27.7,30.33,NW,315,5.4,5.4,37,0.00,,,0.00,VWS V13.01,2013-02-16 22:57:00,
2013-02-16 15:02:00,53.8,27.5,30.33,NW,305,4.9,7.6,36,0.00,,,0.00,VWS V13.01,2013-02-16 23:02:00,
2013-02-16 15:07:00,53.1,27.5,30.33,NNE,22,7.6,8.1,37,0.00,,,0.00,VWS V13.01,2013-02-16 23:07:00,
2013-02-16 15:12:00,52.9,27.3,30.33,NNE,14,8.1,8.1,37,0.00,,,0.00,VWS V13.01,2013-02-16 23:12:00,
2013-02-16 15:17:00,53.2,27.7,30.33,NNE,18,3.6,6.3,37,0.00,,,0.00,VWS V13.01,2013-02-16 23:17:00,
2013-02-16 15:22:00,52.7,27.2,30.33,NE,42,3.6,5.4,37,0.00,,,0.00,VWS V13.01,2013-02-16 23:22:00,
2013-02-16 15:27:00,52.3,27.5,30.33,North,357,5.8,5.8,38,0.00,,,0.00,VWS V13.01,2013-02-16 23:27:00,
2013-02-16 15:32:00,52.3,27.5,30.33,NNE,26,3.6,4.0,38,0.00,,,0.00,VWS V13.01,2013-02-16 23:32:00,
2013-02-16 15:37:00,52.0,26.5,30.33,North,0,14.1,14.1,37,0.00,,,0.00,VWS V13.01,2013-02-16 23:37:00,
2013-02-16 15:42:00,52.0,26.5,30.33,NNW,342,10.1,10.1,37,0.00,,,0.00,VWS V13.01,2013-02-16 23:42:00,
2013-02-16 15:47:00,51.1,26.4,30.33,NNE,28,7.6,9.6,38,0.00,,,0.00,VWS V13.01,2013-02-16 23:47:00,
2013-02-16 15:52:00,51.4,26.7,30.33,North,357,5.8,8.7,38,0.00,,,0.00,VWS V13.01,2013-02-16 23:52:00,
2013-02-16 15:57:00,51.4,26.7,30.33,NE,36,4.0,8.3,38,0.00,,,0.00,VWS V13.01,2013-02-16 23:57:00,
2013-02-16 16:02:00,51.6,26.9,30.33,NNE,17,5.4,7.2,38,0.00,,,0.00,VWS V13.01,2013-02-17 00:02:00,
2013-02-16 16:07:00,51.6,26.9,30.33,NE,47,9.6,10.5,38,0.00,,,0.00,VWS V13.01,2013-02-17 00:07:00,
2013-02-16 16:12:00,52.2,27.3,30.33,North,1,3.6,5.4,38,0.00,,,0.00,VWS V13.01,2013-02-17 00:12:00,
2013-02-16 16:17:00,52.2,26.7,30.33,North,8,3.6,6.3,37,0.00,,,0.00,VWS V13.01,2013-02-17 00:17:00,
2013-02-16 16:22:00,51.6,26.9,30.33,NNW,345,5.4,5.4,38,0.00,,,0.00,VWS V13.01,2013-02-17 00:22:00,
2013-02-16 16:27:00,50.9,26.2,30.33,North,2,4.0,8.7,38,0.00,,,0.00,VWS V13.01,2013-02-17 00:27:00,
2013-02-16 16:32:00,50.9,26.2,30.33,NNE,19,7.2,7.2,38,0.00,,,0.00,VWS V13.01,2013-02-17 00:32:00,
2013-02-16 16:37:00,50.9,26.2,30.33,NNE,28,4.9,4.9,38,0.00,,,0.00,VWS V13.01,2013-02-17 00:37:00,
2013-02-16 16:42:00,50.9,26.2,30.33,North,1,3.6,4.9,38,0.00,,,0.00,VWS V13.01,2013-02-17 00:42:00,
2013-02-16 16:47:00,50.7,26.0,30.33,North,357,5.8,6.3,38,0.00,,,0.00,VWS V13.01,2013-02-17 00:47:00,
2013-02-16 16:52:00,50.9,26.2,30.33,NNE,21,6.3,6.3,38,0.00,,,0.00,VWS V13.01,2013-02-17 00:52:00,
2013-02-16 16:57:00,50.9,26.2,30.33,North,3,6.3,6.3,38,0.00,,,0.00,VWS V13.01,2013-02-17 00:57:00,
2013-02-16 17:02:00,50.7,26.7,30.33,ENE,64,6.7,6.7,39,0.00,,,0.00,VWS V13.01,2013-02-17 01:02:00,
2013-02-16 17:07:00,50.2,26.2,30.33,NNE,15,7.6,7.6,39,0.00,,,0.00,VWS V13.01,2013-02-17 01:07:00,
2013-02-16 17:12:00,50.2,26.8,30.33,NE,51,5.8,7.6,40,0.00,,,0.00,VWS V13.01,2013-02-17 01:12:00,
2013-02-16 17:17:00,50.0,26.6,30.33,ENE,68,2.2,7.6,40,0.00,,,0.00,VWS V13.01,2013-02-17 01:17:00,
2013-02-16 17:22:00,49.5,26.2,30.33,NNE,31,7.6,7.6,40,0.00,,,0.00,VWS V13.01,2013-02-17 01:22:00,
2013-02-16 17:27:00,48.9,25.7,30.33,NE,56,7.6,7.6,40,0.00,,,0.00,VWS V13.01,2013-02-17 01:27:00,
2013-02-16 17:32:00,48.7,26.1,30.33,NE,51,3.6,4.9,41,0.00,,,0.00,VWS V13.01,2013-02-17 01:32:00,
2013-02-16 17:37:00,48.6,26.0,30.30,NE,37,6.3,6.3,41,0.00,,,0.00,VWS V13.01,2013-02-17 01:37:00,
2013-02-16 17:42:00,48.2,25.6,30.30,NE,40,5.8,7.6,41,0.00,,,0.00,VWS V13.01,2013-02-17 01:42:00,
2013-02-16 17:47:00,48.2,26.2,30.30,NNE,31,0.0,4.9,42,0.00,,,0.00,VWS V13.01,2013-02-17 01:47:00,
2013-02-16 17:52:00,47.8,25.9,30.30,NNE,31,3.1,4.0,42,0.00,,,0.00,VWS V13.01,2013-02-17 01:52:00,
2013-02-16 17:57:00,47.7,26.3,30.30,NNE,31,3.1,3.1,43,0.00,,,0.00,VWS V13.01,2013-02-17 01:57:00,
2013-02-16 18:02:00,47.5,26.1,30.30,NNE,31,3.1,4.0,43,0.00,,,0.00,VWS V13.01,2013-02-17 02:02:00,
2013-02-16 18:07:00,47.3,26.5,30.30,NNE,31,3.1,3.1,44,0.00,,,0.00,VWS V13.01,2013-02-17 02:07:00,
2013-02-16 18:12:00,47.3,27.6,30.30,NNE,31,0.0,0.0,46,0.00,,,0.00,VWS V13.01,2013-02-17 02:12:00,
2013-02-16 18:17:00,47.1,27.4,30.30,NNE,31,0.0,0.0,46,0.00,,,0.00,VWS V13.01,2013-02-17 02:17:00,
2013-02-16 18:22:00,47.1,27.9,30.30,NNE,31,0.0,0.0,47,0.00,,,0.00,VWS V13.01,2013-02-17 02:22:00,
2013-02-16 18:27:00,47.1,27.9,30.30,NNE,31,0.0,0.0,47,0.00,,,0.00,VWS V13.01,2013-02-17 02:27:00,
2013-02-16 18:32:00,47.1,27.9,30.30,NNE,31,0.0,0.0,47,0.00,,,0.00,VWS V13.01,2013-02-17 02:32:00,
2013-02-16 18:37:00,46.9,27.8,30.33,NNE,31,0.0,0.0,47,0.00,,,0.00,VWS V13.01,2013-02-17 02:37:00,
2013-02-16 18:42:00,46.8,27.6,30.33,NNE,31,0.0,0.0,47,0.00,,,0.00,VWS V13.01,2013-02-17 02:42:00,
2013-02-16 18:47:00,46.8,27.6,30.33,NNE,31,4.0,4.0,47,0.00,,,0.00,VWS V13.01,2013-02-17 02:47:00,
2013-02-16 18:52:00,46.8,28.1,30.33,NE,52,4.0,5.4,48,0.00,,,0.00,VWS V13.01,2013-02-17 02:52:00,
2013-02-16 18:57:00,46.6,28.5,30.33,NE,51,5.8,6.3,49,0.00,,,0.00,VWS V13.01,2013-02-17 02:57:00,
2013-02-16 19:02:00,46.4,27.8,30.33,ENE,60,3.1,4.9,48,0.00,,,0.00,VWS V13.01,2013-02-17 03:02:00,
2013-02-16 19:07:00,46.4,27.8,30.33,NNE,26,5.8,5.8,48,0.00,,,0.00,VWS V13.01,2013-02-17 03:07:00,
2013-02-16 19:12:00,46.4,26.8,30.33,NE,44,4.5,8.7,46,0.00,,,0.00,VWS V13.01,2013-02-17 03:12:00,
2013-02-16 19:17:00,46.2,26.6,30.33,ENE,66,5.8,7.6,46,0.00,,,0.00,VWS V13.01,2013-02-17 03:17:00,
2013-02-16 19:22:00,46.2,25.0,30.33,NE,54,7.6,7.6,43,0.00,,,0.00,VWS V13.01,2013-02-17 03:22:00,
2013-02-16 19:27:00,46.0,24.8,30.33,ENE,68,4.9,7.6,43,0.00,,,0.00,VWS V13.01,2013-02-17 03:27:00,
2013-02-16 19:32:00,46.0,24.2,30.33,ENE,68,3.1,4.5,42,0.00,,,0.00,VWS V13.01,2013-02-17 03:32:00,
2013-02-16 19:37:00,45.9,24.1,30.33,ENE,68,0.0,3.1,42,0.00,,,0.00,VWS V13.01,2013-02-17 03:37:00,
2013-02-16 19:42:00,45.5,23.8,30.33,ENE,68,0.0,0.0,42,0.00,,,0.00,VWS V13.01,2013-02-17 03:42:00,
2013-02-16 19:47:00,45.1,23.4,30.33,ENE,68,0.0,0.0,42,0.00,,,0.00,VWS V13.01,2013-02-17 03:47:00,
2013-02-16 19:52:00,44.8,23.1,30.33,ENE,68,0.0,0.0,42,0.00,,,0.00,VWS V13.01,2013-02-17 03:52:00,
2013-02-16 19:57:00,44.4,23.3,30.33,ENE,68,0.0,0.0,43,0.00,,,0.00,VWS V13.01,2013-02-17 03:57:00,
2013-02-16 20:02:00,44.1,23.0,30.33,ENE,68,0.0,0.0,43,0.00,,,0.00,VWS V13.01,2013-02-17 04:02:00,
2013-02-16 20:07:00,44.2,24.8,30.33,NE,39,5.4,5.4,46,0.00,,,0.00,VWS V13.01,2013-02-17 04:07:00,
2013-02-16 20:12:00,44.8,27.8,30.33,NE,37,4.9,4.9,51,0.00,,,0.00,VWS V13.01,2013-02-17 04:12:00,
2013-02-16 20:17:00,45.0,28.9,30.33,ENE,66,5.4,6.3,53,0.00,,,0.00,VWS V13.01,2013-02-17 04:17:00,
2013-02-16 20:22:00,45.0,29.8,30.33,ENE,58,4.9,4.9,55,0.00,,,0.00,VWS V13.01,2013-02-17 04:22:00,
2013-02-16 20:27:00,45.0,29.8,30.33,ENE,58,3.1,4.0,55,0.00,,,0.00,VWS V13.01,2013-02-17 04:27:00,
2013-02-16 20:32:00,45.1,30.8,30.33,ENE,58,3.1,4.9,57,0.00,,,0.00,VWS V13.01,2013-02-17 04:32:00,
2013-02-16 20:37:00,45.1,31.7,30.33,ENE,58,4.9,4.9,59,0.00,,,0.00,VWS V13.01,2013-02-17 04:37:00,
2013-02-16 20:42:00,45.3,32.3,30.33,NE,41,5.8,7.6,60,0.00,,,0.00,VWS V13.01,2013-02-17 04:42:00,
2013-02-16 20:47:00,45.1,32.1,30.33,NE,52,5.8,6.3,60,0.00,,,0.00,VWS V13.01,2013-02-17 04:47:00,
2013-02-16 20:52:00,45.1,32.1,30.33,ENE,73,10.1,10.1,60,0.00,,,0.00,VWS V13.01,2013-02-17 04:52:00,
2013-02-16 20:57:00,45.0,30.7,30.33,NE,42,10.5,10.5,57,0.00,,,0.00,VWS V13.01,2013-02-17 04:57:00,
2013-02-16 21:00:00,45.0,30.2,30.33,ENE,71,6.3,10.1,56,0.00,,,0.00,VWS V13.01,2013-02-17 05:00:00,
2013-02-16 21:05:00,44.8,29.6,30.33,NE,43,5.4,5.4,55,0.00,,,0.00,VWS V13.01,2013-02-17 05:05:00,
2013-02-16 21:10:00,44.8,29.6,30.33,NE,54,5.8,5.8,55,0.00,,,0.00,VWS V13.01,2013-02-17 05:10:00,
2013-02-16 21:15:00,44.6,28.5,30.33,NNE,25,5.8,7.6,53,0.00,,,0.00,VWS V13.01,2013-02-17 05:15:00,
2013-02-16 21:20:00,44.8,28.7,30.33,NE,55,3.1,7.6,53,0.00,,,0.00,VWS V13.01,2013-02-17 05:20:00,
2013-02-16 21:25:00,44.8,28.7,30.33,NE,41,5.8,5.8,53,0.00,,,0.00,VWS V13.01,2013-02-17 05:25:00,
2013-02-16 21:30:00,44.8,28.7,30.33,NNE,26,5.4,5.4,53,0.00,,,0.00,VWS V13.01,2013-02-17 05:30:00,
2013-02-16 21:35:00,44.8,29.2,30.33,NNE,31,0.0,2.7,54,0.00,,,0.00,VWS V13.01,2013-02-17 05:35:00,
2013-02-16 21:40:00,44.8,29.2,30.33,NNE,33,4.0,6.3,54,0.00,,,0.00,VWS V13.01,2013-02-17 05:40:00,
2013-02-16 21:45:00,44.8,29.2,30.33,ENE,64,3.1,5.4,54,0.00,,,0.00,VWS V13.01,2013-02-17 05:45:00,
2013-02-16 21:50:00,44.6,29.0,30.33,ENE,73,3.1,3.1,54,0.00,,,0.00,VWS V13.01,2013-02-17 05:50:00,
2013-02-16 21:55:00,44.6,29.0,30.33,ENE,60,2.7,4.5,54,0.00,,,0.00,VWS V13.01,2013-02-17 05:55:00,
2013-02-16 22:00:00,44.6,29.0,30.33,ENE,73,2.2,3.1,54,0.00,,,0.00,VWS V13.01,2013-02-17 06:00:00,
2013-02-16 22:05:00,44.6,29.0,30.33,East,79,2.7,2.7,54,0.00,,,0.00,VWS V13.01,2013-02-17 06:05:00,
2013-02-16 22:10:00,44.6,28.5,30.33,ENE,76,3.1,3.6,53,0.00,,,0.00,VWS V13.01,2013-02-17 06:10:00,
2013-02-16 22:15:00,44.6,28.1,30.33,ENE,77,3.1,3.1,52,0.00,,,0.00,VWS V13.01,2013-02-17 06:15:00,
2013-02-16 22:20:00,44.6,28.1,30.33,ENE,77,3.6,3.6,52,0.00,,,0.00,VWS V13.01,2013-02-17 06:20:00,
2013-02-16 22:25:00,44.6,28.1,30.33,ENE,77,0.0,0.0,52,0.00,,,0.00,VWS V13.01,2013-02-17 06:25:00,
2013-02-16 22:30:00,44.6,27.1,30.33,ENE,71,0.0,0.0,50,0.00,,,0.00,VWS V13.01,2013-02-17 06:30:00,
2013-02-16 22:35:00,44.4,27.0,30.33,NE,52,3.1,3.1,50,0.00,,,0.00,VWS V13.01,2013-02-17 06:35:00,
2013-02-16 22:40:00,44.2,26.8,30.33,NE,52,0.0,0.0,50,0.00,,,0.00,VWS V13.01,2013-02-17 06:40:00,
2013-02-16 22:45:00,44.1,26.6,30.33,NE,52,0.0,0.0,50,0.00,,,0.00,VWS V13.01,2013-02-17 06:45:00,
2013-02-16 22:50:00,43.7,26.3,30.33,NE,52,0.0,0.0,50,0.00,,,0.00,VWS V13.01,2013-02-17 06:50:00,
2013-02-16 22:55:00,43.5,26.1,30.33,NE,52,0.0,0.0,50,0.00,,,0.00,VWS V13.01,2013-02-17 06:55:00,
2013-02-16 23:00:00,43.3,26.4,30.33,ENE,60,2.2,2.7,51,0.00,,,0.00,VWS V13.01,2013-02-17 07:00:00,
2013-02-16 23:05:00,42.8,25.9,30.33,ENE,60,0.0,0.0,51,0.00,,,0.00,VWS V13.01,2013-02-17 07:05:00,
2013-02-16 23:10:00,42.4,25.6,30.33,ENE,60,0.0,0.0,51,0.00,,,0.00,VWS V13.01,2013-02-17 07:10:00,
2013-02-16 23:15:00,42.1,25.3,30.33,ENE,60,0.0,0.0,51,0.00,,,0.00,VWS V13.01,2013-02-17 07:15:00,
2013-02-16 23:20:00,41.9,25.6,30.33,ENE,67,0.0,2.2,52,0.00,,,0.00,VWS V13.01,2013-02-17 07:20:00,
2013-02-16 23:25:00,41.7,25.4,30.33,ENE,67,0.0,0.0,52,0.00,,,0.00,VWS V13.01,2013-02-17 07:25:00,
2013-02-16 23:30:00,41.4,25.1,30.33,ENE,67,0.0,0.0,52,0.00,,,0.00,VWS V13.01,2013-02-17 07:30:00,
2013-02-16 23:35:00,41.2,25.4,30.33,ENE,67,0.0,0.0,53,0.00,,,0.00,VWS V13.01,2013-02-17 07:35:00,
2013-02-16 23:40:00,41.2,25.8,30.33,ENE,67,0.0,0.0,54,0.00,,,0.00,VWS V13.01,2013-02-17 07:40:00,
2013-02-16 23:45:00,41.2,26.2,30.33,ENE,67,0.0,0.0,55,0.00,,,0.00,VWS V13.01,2013-02-17 07:45:00,
2013-02-16 23:50:00,41.2,26.2,30.33,ENE,67,0.0,0.0,55,0.00,,,0.00,VWS V13.01,2013-02-17 07:50:00,
2013-02-16 23:55:00,41.4,26.9,30.33,ENE,67,0.0,0.0,56,0.00,,,0.00,VWS V13.01,2013-02-17 07:55:00,